createdAt,value
2018-12-31T00:00:45.997Z,11
2018-12-31T00:10:53.628Z,16
2018-12-31T00:20:59.056Z,19
2018-12-31T00:31:06.863Z,15
2018-12-31T00:41:14.547Z,12
2018-12-31T00:51:19.984Z,14
2018-12-31T01:01:28.509Z,15
2018-12-31T01:11:52.400Z,12
2018-12-31T01:21:58.746Z,13
2018-12-31T01:32:05.395Z,12
2018-12-31T01:42:15.157Z,11
2018-12-31T01:52:24.952Z,12
2018-12-31T02:02:30.357Z,14
2018-12-31T02:12:37.337Z,12
2018-12-31T02:22:44.310Z,15
2018-12-31T02:32:53.155Z,11
2018-12-31T02:43:00.430Z,13
2018-12-31T02:53:08.023Z,12
2018-12-31T03:03:15.167Z,13
2018-12-31T03:13:22.816Z,11
2018-12-31T03:23:29.495Z,10
2018-12-31T03:33:39.300Z,11
2018-12-31T03:43:45.219Z,12
2018-12-31T03:53:51.080Z,15
2018-12-31T04:03:59.938Z,15
2018-12-31T04:14:06.785Z,19
2018-12-31T04:24:12.555Z,13
2018-12-31T04:34:20.710Z,14
2018-12-31T04:44:28.630Z,12
2018-12-31T04:54:35.079Z,15
2018-12-31T05:04:42.623Z,14
2018-12-31T05:14:49.249Z,12
2018-12-31T05:24:57.467Z,10
2018-12-31T05:35:05.111Z,14
2018-12-31T05:45:13.624Z,10
2018-12-31T05:55:23.500Z,10
2018-12-31T06:05:28.644Z,10
2018-12-31T06:15:35.690Z,9
2018-12-31T06:25:46.340Z,8
2018-12-31T06:35:52.272Z,30
2018-12-31T06:46:01.147Z,23
2018-12-31T06:56:05.778Z,17
2018-12-31T07:06:14.540Z,12
2018-12-31T07:16:22.913Z,18
2018-12-31T07:19:53.684Z,19
2018-12-31T07:21:04.779Z,19
2018-12-31T07:31:10.328Z,12
2018-12-31T07:41:17.179Z,11
2018-12-31T07:48:37.186Z,9
2018-12-31T07:58:39.925Z,9
2018-12-31T08:08:46.926Z,12
2018-12-31T08:18:56.039Z,9
2018-12-31T08:25:12.905Z,10
2018-12-31T08:26:25.718Z,10
2018-12-31T08:36:27.057Z,12
2018-12-31T08:46:32.672Z,9
2018-12-31T08:48:49.617Z,8
2018-12-31T08:49:58.087Z,8
2018-12-31T09:00:06.077Z,13
2018-12-31T09:02:36.783Z,8
2018-12-31T09:12:43.393Z,8
2018-12-31T09:22:50.201Z,12
2018-12-31T09:32:57.889Z,19
2018-12-31T09:43:05.195Z,14
2018-12-31T09:53:15.327Z,12
2018-12-31T10:03:18.690Z,12
2018-12-31T10:13:28.054Z,17
2018-12-31T10:23:35.143Z,12
2018-12-31T10:33:41.171Z,9
2018-12-31T10:43:49.359Z,10
2018-12-31T11:04:04.580Z,15
2018-12-31T11:14:15.237Z,9
2018-12-31T11:24:21.431Z,11
2018-12-31T11:34:17.255Z,18
2018-12-31T11:36:58.761Z,16
2018-12-31T11:39:20.615Z,15
2018-12-31T11:49:28.006Z,12
2018-12-31T11:59:34.774Z,14
2018-12-31T12:09:40.487Z,19
2018-12-31T12:19:46.823Z,12
2018-12-31T12:29:55.827Z,9
2018-12-31T12:40:01.788Z,13
2018-12-31T12:50:09.899Z,12
2018-12-31T13:00:17.186Z,8
2018-12-31T13:10:25.892Z,11
2018-12-31T13:20:34.178Z,14
2018-12-31T13:30:43.852Z,9
2018-12-31T13:40:51.061Z,18
2018-12-31T13:51:04.642Z,17
2018-12-31T13:52:29.089Z,19
2018-12-31T14:02:34.743Z,11
2018-12-31T14:12:42.092Z,13
2018-12-31T14:22:49.765Z,10
2018-12-31T14:32:57.869Z,7
2018-12-31T14:35:11.936Z,7
2018-12-31T14:36:24.547Z,6
2018-12-31T14:46:31.594Z,12
2018-12-31T14:56:40.039Z,12
2018-12-31T15:06:27.469Z,12
2018-12-31T15:07:41.888Z,12
2018-12-31T15:17:46.609Z,7
2018-12-31T15:27:54.564Z,6
2018-12-31T15:38:02.328Z,5
2018-12-31T15:48:10.662Z,7
2018-12-31T15:58:15.638Z,9
2018-12-31T16:08:25.017Z,17
2018-12-31T16:18:37.237Z,12
2018-12-31T16:28:45.145Z,15
2018-12-31T16:38:51.004Z,15
2018-12-31T16:45:25.013Z,17
2018-12-31T16:54:06.717Z,15
2018-12-31T17:04:10.386Z,13
2018-12-31T17:14:18.280Z,9
2018-12-31T17:24:25.023Z,10
2018-12-31T17:34:35.790Z,8
2018-12-31T17:44:45.068Z,21
2018-12-31T17:45:57.946Z,20
2018-12-31T17:56:04.070Z,18
2018-12-31T18:06:11.865Z,23
2018-12-31T18:16:20.989Z,18
2018-12-31T18:26:30.127Z,14
2018-12-31T18:36:33.641Z,12
2018-12-31T18:46:40.037Z,28
2018-12-31T18:56:48.446Z,24
2018-12-31T19:06:54.658Z,20
2018-12-31T19:17:04.805Z,22
2018-12-31T19:27:12.042Z,27
2018-12-31T19:37:21.400Z,29
2018-12-31T19:47:28.529Z,23
2018-12-31T19:57:36.637Z,24
2018-12-31T20:07:46.992Z,21
2018-12-31T20:17:53.450Z,24
2018-12-31T20:27:59.436Z,22
2018-12-31T20:38:08.201Z,19
2018-12-31T20:48:14.808Z,19
2018-12-31T20:58:23.897Z,19
2018-12-31T21:08:28.606Z,22
2018-12-31T21:18:38.295Z,19
2018-12-31T21:28:43.061Z,25
2018-12-31T21:38:49.736Z,25
2018-12-31T21:48:56.070Z,22
2018-12-31T21:59:05.289Z,31
2018-12-31T22:09:15.223Z,33
2018-12-31T22:19:19.655Z,31
2018-12-31T22:29:27.584Z,45
2018-12-31T22:39:35.112Z,156
2018-12-31T22:49:42.469Z,76
2018-12-31T22:59:49.076Z,39
2018-12-31T23:09:59.194Z,337
2018-12-31T23:20:18.120Z,677
2018-12-31T23:30:26.188Z,212
2018-12-31T23:39:45.176Z,357
2018-12-31T23:49:54.704Z,84
